Time;durP1;ratioP1;P1;durP2;ratioP2;P2;SDS_P1;SDS_P2;PMS_P1;PMS_P2;Temp;Humidity;BMP_temperature;BMP_pressure;BME280_temperature;BME280_humidity;BME280_pressure;Samples;Min_cycle;Max_cycle;Signal;HPM_P1;HPM_P2
2022/08/27 00:02:15;;;;;;;;;9.75;6.75;;;29.50;100398.04;;;;117101;1193;24802;-59
2022/08/27 00:04:45;;;;;;;;;16.00;9.33;;;29.50;100401.13;;;;117083;1192;25138;-60
2022/08/27 00:07:13;;;;;;;;;16.00;9.25;;;29.50;100400.60;;;;117121;1192;25270;-61
2022/08/27 00:09:42;;;;;;;;;13.33;8.33;;;29.51;100401.02;;;;117084;1193;25259;-60
2022/08/27 00:12:11;;;;;;;;;13.25;10.50;;;29.51;100400.34;;;;117080;1193;25642;-59
2022/08/27 00:14:40;;;;;;;;;9.00;6.75;;;29.52;100400.85;;;;117067;1194;25661;-61
2022/08/27 00:17:08;;;;;;;;;11.67;7.00;;;29.52;100404.27;;;;116997;1194;25612;-62
2022/08/27 00:19:38;;;;;;;;;9.50;6.00;;;29.52;100407.19;;;;117040;1193;25454;-59
2022/08/27 00:22:08;;;;;;;;;10.25;7.25;;;29.52;100406.85;;;;117089;1192;25534;-61
2022/08/27 00:24:37;;;;;;;;;13.67;8.33;;;29.54;100410.69;;;;117073;1193;24804;-63
2022/08/27 00:27:16;;;;;;;;;8.00;5.25;;;29.56;100414.69;;;;117008;1194;25715;-63
2022/08/27 00:29:46;;;;;;;;;11.00;8.25;;;29.58;100412.10;;;;117088;1193;24882;-61
2022/08/27 00:32:15;;;;;;;;;11.00;9.00;;;29.58;100411.95;;;;117015;1192;24842;-61
2022/08/27 00:34:44;;;;;;;;;12.00;9.67;;;29.58;100410.58;;;;117106;1193;25163;-62
2022/08/27 00:37:13;;;;;;;;;13.75;8.50;;;29.59;100413.06;;;;116880;1195;25423;-60
2022/08/27 00:39:42;;;;;;;;;11.00;7.75;;;29.59;100408.77;;;;117050;1193;25806;-61
2022/08/27 00:42:11;;;;;;;;;12.50;8.50;;;29.59;100411.11;;;;117062;1193;25023;-65
2022/08/27 00:44:40;;;;;;;;;15.00;9.33;;;29.59;100410.27;;;;117100;1193;26165;-65
2022/08/27 00:47:16;;;;;;;;;10.00;6.67;;;29.59;100414.14;;;;117083;1193;25493;-61
2022/08/27 00:49:57;;;;;;;;;9.50;6.00;;;29.60;100415.52;;;;117033;1193;25433;-59
2022/08/27 00:52:34;;;;;;;;;8.00;7.00;;;29.62;100417.77;;;;117041;1194;25530;-59
2022/08/27 00:55:11;;;;;;;;;10.75;9.50;;;29.62;100420.70;;;;117077;1193;25226;-59
2022/08/27 00:57:41;;;;;;;;;6.25;6.00;;;29.63;100422.65;;;;117030;1194;24941;-59
2022/08/27 01:00:13;;;;;;;;;13.67;9.00;;;29.63;100422.36;;;;117077;1193;25657;-59
2022/08/27 01:02:42;;;;;;;;;7.50;5.00;;;29.64;100417.36;;;;117105;1193;25805;-60
2022/08/27 01:05:16;;;;;;;;;11.25;7.00;;;29.64;100413.48;;;;117181;1194;25134;-59
2022/08/27 01:07:48;;;;;;;;;5.33;4.00;;;29.65;100410.98;;;;117089;1193;25178;-59
2022/08/27 01:10:19;;;;;;;;;11.00;8.50;;;29.66;100407.31;;;;117096;1193;25214;-59
2022/08/27 01:12:51;;;;;;;;;9.50;7.50;;;29.65;100406.76;;;;117160;1193;25636;-59
2022/08/27 01:15:22;;;;;;;;;8.50;7.00;;;29.65;100409.30;;;;117115;1193;24888;-59
2022/08/27 01:17:51;;;;;;;;;10.33;8.00;;;29.66;100410.77;;;;117109;1192;25728;-59
2022/08/27 01:20:29;;;;;;;;;11.75;7.00;;;29.65;100412.92;;;;117111;1193;25252;-59
2022/08/27 01:23:36;;;;;;;;;12.25;9.00;;;29.65;100413.86;;;;117415;1189;25216;-59
2022/08/27 01:26:06;;;;;;;;;10.00;6.75;;;29.72;100415.78;;;;117406;1189;25699;-59
2022/08/27 01:28:36;;;;;;;;;10.00;8.50;;;29.74;100416.60;;;;117394;1190;25287;-60
2022/08/27 01:31:09;;;;;;;;;8.50;6.50;;;29.72;100415.84;;;;117438;1189;24874;-59
2022/08/27 01:33:38;;;;;;;;;12.75;8.50;;;29.71;100415.05;;;;117420;1190;25110;-60
2022/08/27 01:36:07;;;;;;;;;11.50;8.25;;;29.69;100414.88;;;;117418;1189;25490;-60
2022/08/27 01:38:36;;;;;;;;;10.50;7.75;;;29.67;100416.88;;;;117284;1191;25514;-59
2022/08/27 01:41:05;;;;;;;;;10.00;5.33;;;29.67;100417.11;;;;117419;1190;24843;-60
2022/08/27 01:43:34;;;;;;;;;8.67;7.00;;;29.66;100420.27;;;;117391;1191;25323;-59
2022/08/27 01:46:03;;;;;;;;;6.67;5.00;;;29.64;100421.33;;;;117423;1191;25236;-60
2022/08/27 01:48:31;;;;;;;;;8.00;8.00;;;29.66;100418.34;;;;117304;1191;25480;-61
2022/08/27 01:51:00;;;;;;;;;11.33;7.67;;;29.66;100417.23;;;;117187;1191;25500;-59
2022/08/27 01:53:28;;;;;;;;;13.00;7.00;;;29.65;100417.23;;;;117230;1191;25275;-60
2022/08/27 01:55:57;;;;;;;;;19.00;9.33;;;29.65;100421.91;;;;117234;1191;24750;-59
2022/08/27 01:58:29;;;;;;;;;9.00;6.67;;;29.64;100419.80;;;;117420;1189;25432;-59
2022/08/27 02:01:01;;;;;;;;;8.50;6.50;;;29.65;100421.73;;;;117425;1188;24929;-59
2022/08/27 02:03:31;;;;;;;;;8.75;6.25;;;29.67;100422.52;;;;117429;1190;25670;-59
2022/08/27 02:06:04;;;;;;;;;10.00;7.50;;;29.67;100423.17;;;;117363;1191;25198;-60
2022/08/27 02:08:33;;;;;;;;;10.00;6.25;;;29.70;100424.86;;;;117285;1191;24935;-60
2022/08/27 02:11:01;;;;;;;;;8.50;7.50;;;29.70;100419.71;;;;117206;1190;25242;-59
2022/08/27 02:13:30;;;;;;;;;7.00;5.33;;;29.70;100418.84;;;;117316;1191;25403;-59
2022/08/27 02:15:58;;;;;;;;;9.25;6.50;;;29.69;100421.63;;;;117261;1191;25059;-59
2022/08/27 02:18:27;;;;;;;;;11.00;8.00;;;29.68;100425.89;;;;117319;1190;25609;-60
2022/08/27 02:20:56;;;;;;;;;6.00;6.00;;;29.68;100428.71;;;;117167;1191;25138;-61
2022/08/27 02:23:25;;;;;;;;;7.00;5.75;;;29.67;100430.23;;;;117270;1191;24917;-59
2022/08/27 02:25:53;;;;;;;;;13.50;8.50;;;29.67;100430.51;;;;117176;1190;25752;-60
2022/08/27 02:28:22;;;;;;;;;10.00;6.50;;;29.66;100431.25;;;;117280;1190;26893;-60
2022/08/27 02:30:50;;;;;;;;;9.00;8.25;;;29.67;100428.94;;;;117443;1189;25346;-60
2022/08/27 02:33:19;;;;;;;;;8.00;6.00;;;29.67;100424.92;;;;117380;1190;25726;-59
2022/08/27 02:35:48;;;;;;;;;11.75;4.50;;;29.66;100431.08;;;;117251;1191;25639;-59
2022/08/27 02:38:17;;;;;;;;;5.67;5.33;;;29.67;100434.31;;;;117442;1190;25094;-59
2022/08/27 02:40:45;;;;;;;;;10.25;7.25;;;29.66;100440.64;;;;117176;1191;25341;-59
2022/08/27 02:43:13;;;;;;;;;5.50;4.00;;;29.65;100443.73;;;;117149;1191;25008;-58
2022/08/27 02:45:52;;;;;;;;;14.75;8.75;;;29.66;100444.52;;;;117174;1191;25008;-59
2022/08/27 02:48:20;;;;;;;;;8.50;7.25;;;29.68;100445.08;;;;117410;1191;25017;-59
2022/08/27 02:50:49;;;;;;;;;9.00;5.67;;;29.67;100443.15;;;;117244;1190;25461;-60
2022/08/27 02:53:18;;;;;;;;;14.75;8.00;;;29.67;100436.51;;;;117433;1191;25665;-59
2022/08/27 02:55:47;;;;;;;;;8.50;4.75;;;29.67;100436.40;;;;117411;1190;25218;-60
2022/08/27 02:58:16;;;;;;;;;9.25;7.00;;;29.67;100434.99;;;;117410;1191;25269;-60
2022/08/27 03:00:45;;;;;;;;;8.00;4.67;;;29.67;100433.05;;;;117382;1191;25521;-60
2022/08/27 03:03:14;;;;;;;;;11.25;7.75;;;29.66;100433.00;;;;117433;1191;25443;-62
2022/08/27 03:05:43;;;;;;;;;9.00;4.00;;;29.66;100430.49;;;;117432;1191;25257;-62
2022/08/27 03:08:11;;;;;;;;;8.75;6.75;;;29.66;100428.89;;;;117439;1190;25348;-68
2022/08/27 03:10:40;;;;;;;;;8.75;7.25;;;29.66;100424.91;;;;117459;1190;25753;-67
2022/08/27 03:13:09;;;;;;;;;13.75;7.75;;;29.66;100427.91;;;;117440;1190;25542;-67
2022/08/27 03:15:37;;;;;;;;;9.25;6.75;;;29.65;100426.48;;;;117510;1189;24904;-62
2022/08/27 03:18:18;;;;;;;;;9.00;8.00;;;29.65;100424.27;;;;117358;1189;25626;-60
2022/08/27 03:20:52;;;;;;;;;10.75;5.50;;;29.66;100421.65;;;;117368;1189;25212;-59
2022/08/27 03:23:25;;;;;;;;;8.25;7.00;;;29.67;100421.26;;;;117467;1189;25631;-61
2022/08/27 03:25:56;;;;;;;;;7.75;6.50;;;29.69;100427.99;;;;117436;1190;25330;-58
2022/08/27 03:28:31;;;;;;;;;8.25;5.50;;;29.69;100429.27;;;;117417;1189;25147;-59
2022/08/27 03:31:03;;;;;;;;;7.67;6.67;;;29.69;100431.92;;;;117422;1187;25468;-60
2022/08/27 03:33:37;;;;;;;;;7.25;7.25;;;29.71;100436.98;;;;117412;1190;25449;-61
2022/08/27 03:36:07;;;;;;;;;6.00;5.25;;;29.70;100433.64;;;;117408;1189;25091;-59
2022/08/27 03:38:36;;;;;;;;;4.00;4.00;;;29.70;100430.88;;;;117388;1189;25471;-59
2022/08/27 03:41:05;;;;;;;;;8.33;5.00;;;29.69;100432.52;;;;117417;1190;24798;-59
2022/08/27 03:43:34;;;;;;;;;3.50;3.50;;;29.69;100432.92;;;;117454;1190;25188;-59
2022/08/27 03:46:02;;;;;;;;;8.50;6.00;;;29.68;100434.20;;;;117425;1190;24932;-60
2022/08/27 03:48:31;;;;;;;;;10.00;8.50;;;29.68;100431.84;;;;117456;1189;24959;-60
2022/08/27 03:51:08;;;;;;;;;8.75;5.75;;;29.67;100432.66;;;;117453;1189;25849;-59
2022/08/27 03:53:38;;;;;;;;;11.25;6.75;;;29.68;100435.34;;;;117401;1189;25442;-59
2022/08/27 03:56:07;;;;;;;;;6.50;6.25;;;29.69;100440.71;;;;117423;1190;25301;-59
2022/08/27 03:58:36;;;;;;;;;4.75;4.75;;;29.68;100441.15;;;;117435;1189;24826;-59
2022/08/27 04:01:07;;;;;;;;;9.75;6.75;;;29.69;100441.34;;;;117416;1190;25275;-59
2022/08/27 04:03:36;;;;;;;;;8.50;7.75;;;29.68;100442.54;;;;117432;1190;24713;-60
2022/08/27 04:06:05;;;;;;;;;9.00;8.00;;;29.68;100443.39;;;;117409;1190;25386;-59
2022/08/27 04:08:34;;;;;;;;;5.50;4.75;;;29.68;100446.34;;;;117419;1189;24967;-59
2022/08/27 04:11:06;;;;;;;;;11.00;5.67;;;29.67;100449.84;;;;117407;1190;25279;-61
2022/08/27 04:13:34;;;;;;;;;5.50;4.25;;;29.67;100452.08;;;;117449;1189;25461;-59
2022/08/27 04:16:04;;;;;;;;;10.00;7.00;;;29.67;100447.37;;;;117424;1187;25088;-61
2022/08/27 04:18:33;;;;;;;;;8.67;6.00;;;29.66;100440.73;;;;117436;1189;25029;-61
2022/08/27 04:21:12;;;;;;;;;9.00;6.33;;;29.67;100442.51;;;;117461;1190;24949;-62
2022/08/27 04:23:42;;;;;;;;;9.00;6.75;;;29.69;100442.58;;;;117465;1188;24911;-61
2022/08/27 04:26:10;;;;;;;;;7.50;5.25;;;29.72;100445.74;;;;117439;1189;25548;-60
2022/08/27 04:28:39;;;;;;;;;9.00;7.67;;;29.72;100447.41;;;;117468;1189;24943;-61
2022/08/27 04:31:08;;;;;;;;;8.00;7.00;;;29.71;100452.05;;;;117427;1189;24943;-61
2022/08/27 04:33:44;;;;;;;;;5.50;5.25;;;29.71;100450.51;;;;117403;1189;25813;-59
2022/08/27 04:36:19;;;;;;;;;10.50;6.00;;;29.71;100445.97;;;;117439;1188;25643;-60
2022/08/27 04:38:47;;;;;;;;;7.00;7.00;;;29.73;100447.81;;;;117461;1189;25291;-64
2022/08/27 04:41:20;;;;;;;;;10.00;4.75;;;29.73;100446.25;;;;117486;1188;25127;-63
2022/08/27 04:43:53;;;;;;;;;9.75;8.00;;;29.72;100445.36;;;;117478;1190;25562;-58
2022/08/27 04:46:27;;;;;;;;;7.50;7.50;;;29.72;100451.56;;;;117453;1189;25609;-60
2022/08/27 04:48:58;;;;;;;;;7.50;5.50;;;29.72;100454.10;;;;117416;1189;25213;-59
2022/08/27 04:51:27;;;;;;;;;9.50;6.50;;;29.73;100453.14;;;;117437;1190;25180;-60
2022/08/27 04:53:57;;;;;;;;;7.67;6.00;;;29.73;100463.77;;;;117403;1189;25705;-59
2022/08/27 04:56:28;;;;;;;;;10.33;7.33;;;29.73;100464.30;;;;117398;1189;25676;-61
2022/08/27 04:58:57;;;;;;;;;6.00;6.00;;;29.72;100468.94;;;;117443;1189;25462;-59
2022/08/27 05:01:28;;;;;;;;;7.25;6.00;;;29.73;100475.45;;;;117478;1189;24802;-59
2022/08/27 05:03:57;;;;;;;;;9.75;7.75;;;29.72;100477.33;;;;117457;1188;25059;-59
2022/08/27 05:06:26;;;;;;;;;7.50;6.00;;;29.71;100475.07;;;;117453;1189;25464;-59
2022/08/27 05:08:55;;;;;;;;;5.00;5.00;;;29.72;100473.72;;;;117428;1190;25087;-59
2022/08/27 05:11:30;;;;;;;;;8.25;8.25;;;29.72;100474.81;;;;117455;1189;24898;-59
2022/08/27 05:14:08;;;;;;;;;5.00;5.00;;;29.72;100477.67;;;;117433;1190;25185;-59
2022/08/27 05:16:37;;;;;;;;;9.25;6.75;;;29.73;100479.21;;;;117435;1189;25539;-60
2022/08/27 05:19:09;;;;;;;;;6.00;6.00;;;29.74;100483.69;;;;117388;1189;25428;-60
2022/08/27 05:21:39;;;;;;;;;11.75;9.50;;;29.74;100483.56;;;;117468;1189;25463;-60
2022/08/27 05:24:07;;;;;;;;;12.00;7.25;;;29.75;100483.67;;;;117459;1190;25151;-60
2022/08/27 05:26:36;;;;;;;;;9.75;7.25;;;29.75;100487.04;;;;117430;1189;25587;-59
2022/08/27 05:29:05;;;;;;;;;9.67;7.00;;;29.76;100494.45;;;;117387;1189;25442;-59
2022/08/27 05:31:34;;;;;;;;;7.00;7.00;;;29.75;100497.44;;;;117460;1189;25002;-60
2022/08/27 05:34:04;;;;;;;;;7.75;5.50;;;29.76;100493.61;;;;117405;1189;25451;-60
2022/08/27 05:36:39;;;;;;;;;9.75;8.75;;;29.78;100491.43;;;;117390;1189;25038;-59
2022/08/27 05:39:16;;;;;;;;;8.50;8.50;;;29.80;100492.76;;;;117393;1190;24958;-59
2022/08/27 05:41:44;;;;;;;;;8.75;6.75;;;29.83;100497.91;;;;117450;1190;25120;-59
2022/08/27 05:44:14;;;;;;;;;7.00;6.50;;;29.82;100496.88;;;;117416;1190;25180;-60
2022/08/27 05:47:03;;;;;;;;;6.25;6.25;;;29.85;100495.95;;;;117402;1190;24978;-59
2022/08/27 05:49:32;;;;;;;;;6.00;4.33;;;29.88;100498.52;;;;117429;1190;25387;-59
2022/08/27 05:52:01;;;;;;;;;6.00;5.67;;;29.86;100503.21;;;;117403;1190;25706;-59
2022/08/27 05:54:29;;;;;;;;;8.75;7.25;;;29.85;100508.88;;;;117476;1189;24890;-58
2022/08/27 05:56:58;;;;;;;;;8.75;7.25;;;29.86;100507.89;;;;117387;1190;24942;-59
2022/08/27 06:02:14;;;;;;;;;9.00;9.00;;;29.84;100519.25;;;;117423;1189;24713;-58
2022/08/27 06:04:42;;;;;;;;;9.00;5.33;;;29.83;100523.87;;;;117357;1190;25512;-58
2022/08/27 06:07:11;;;;;;;;;10.25;8.75;;;29.84;100520.20;;;;117368;1190;25436;-58
2022/08/27 06:09:40;;;;;;;;;9.50;8.00;;;29.85;100525.17;;;;117439;1189;26528;-59
2022/08/27 06:12:09;;;;;;;;;9.33;7.67;;;29.86;100524.13;;;;117448;1188;25370;-58
2022/08/27 06:14:38;;;;;;;;;10.00;8.75;;;29.88;100522.77;;;;117444;1189;25127;-58
2022/08/27 06:17:06;;;;;;;;;10.67;9.00;;;29.89;100514.64;;;;117461;1190;25595;-58
2022/08/27 06:19:35;;;;;;;;;8.00;6.00;;;29.89;100514.50;;;;117449;1189;24958;-59
2022/08/27 06:22:04;;;;;;;;;12.50;9.00;;;29.90;100520.46;;;;117367;1191;24989;-57
2022/08/27 06:24:40;;;;;;;;;9.25;9.25;;;29.91;100525.29;;;;117409;1190;25547;-58
2022/08/27 06:27:12;;;;;;;;;5.75;5.75;;;29.93;100524.29;;;;117467;1189;25575;-58
2022/08/27 06:29:41;;;;;;;;;9.33;9.00;;;29.97;100522.69;;;;117428;1190;25224;-58
2022/08/27 06:32:11;;;;;;;;;13.00;10.00;;;29.98;100523.58;;;;117421;1189;25477;-57
2022/08/27 06:34:40;;;;;;;;;11.25;9.75;;;30.00;100519.90;;;;117623;1189;24790;-58
2022/08/27 06:37:09;;;;;;;;;14.33;9.33;;;30.05;100523.42;;;;117427;1190;25036;-58
2022/08/27 06:39:38;;;;;;;;;10.00;7.75;;;30.06;100520.17;;;;117459;1189;25308;-58
2022/08/27 06:42:12;;;;;;;;;12.50;9.00;;;30.06;100522.70;;;;117413;1190;25692;-56
2022/08/27 06:44:40;;;;;;;;;9.00;8.25;;;30.06;100531.36;;;;117446;1189;24997;-54
2022/08/27 06:47:10;;;;;;;;;9.50;7.50;;;30.12;100535.56;;;;117454;1189;24937;-57
2022/08/27 06:49:39;;;;;;;;;11.00;8.00;;;30.15;100536.65;;;;117469;1189;24829;-55
2022/08/27 06:52:10;;;;;;;;;10.00;9.00;;;30.18;100539.43;;;;117424;1189;25897;-56
2022/08/27 06:54:39;;;;;;;;;10.50;7.00;;;30.14;100541.89;;;;117405;1190;25186;-56
2022/08/27 06:57:07;;;;;;;;;11.00;7.75;;;30.15;100548.26;;;;117389;1189;25376;-54
2022/08/27 06:59:36;;;;;;;;;11.00;7.75;;;30.21;100543.55;;;;117472;1190;24851;-57
2022/08/27 07:02:06;;;;;;;;;14.25;9.25;;;30.20;100546.98;;;;117413;1189;25032;-55
2022/08/27 07:04:36;;;;;;;;;9.25;6.00;;;30.22;100547.55;;;;117365;1190;25142;-55
2022/08/27 07:07:05;;;;;;;;;10.50;6.50;;;30.22;100547.86;;;;117432;1190;25458;-54
2022/08/27 07:09:33;;;;;;;;;7.75;6.75;;;30.25;100550.30;;;;117425;1190;25018;-54
2022/08/27 07:12:03;;;;;;;;;8.33;5.00;;;30.23;100549.30;;;;117450;1189;25598;-55
2022/08/27 07:14:32;;;;;;;;;9.50;8.00;;;30.22;100549.59;;;;117423;1189;25737;-55
2022/08/27 07:17:08;;;;;;;;;9.50;7.50;;;30.18;100554.38;;;;117434;1189;25184;-54
2022/08/27 07:19:43;;;;;;;;;8.50;7.00;;;30.18;100553.52;;;;117403;1189;25605;-55
2022/08/27 07:22:12;;;;;;;;;13.75;10.00;;;30.20;100552.70;;;;117459;1189;25341;-55
2022/08/27 07:24:41;;;;;;;;;9.00;7.00;;;30.18;100554.86;;;;117448;1188;25585;-55
2022/08/27 07:27:09;;;;;;;;;10.25;7.25;;;30.20;100555.39;;;;117413;1190;25061;-55
2022/08/27 07:29:38;;;;;;;;;14.50;7.75;;;30.20;100556.88;;;;117435;1189;24866;-54
2022/08/27 07:32:07;;;;;;;;;6.00;5.00;;;30.20;100557.03;;;;117455;1187;25428;-55
2022/08/27 07:34:35;;;;;;;;;9.33;6.33;;;30.20;100556.73;;;;117438;1190;25092;-55
2022/08/27 07:37:04;;;;;;;;;8.00;6.33;;;30.22;100553.72;;;;117383;1189;25171;-55
2022/08/27 07:39:32;;;;;;;;;9.00;8.25;;;30.22;100551.83;;;;117438;1191;25011;-55
2022/08/27 07:44:58;;;;;;;;;8.50;7.50;;;30.32;100552.98;;;;119059;1190;25009;-57
2022/08/27 07:47:28;;;;;;;;;10.75;5.25;;;30.63;100552.47;;;;117395;1189;25693;-61
2022/08/27 07:49:57;;;;;;;;;10.00;5.50;;;30.67;100550.80;;;;117424;1187;24995;-60
2022/08/27 07:52:26;;;;;;;;;7.67;7.33;;;30.58;100550.57;;;;117488;1189;25132;-59
2022/08/27 07:54:56;;;;;;;;;9.75;7.00;;;30.56;100553.80;;;;117418;1190;25057;-58
2022/08/27 07:57:24;;;;;;;;;7.75;5.50;;;30.49;100553.74;;;;117474;1189;24898;-58
2022/08/27 07:59:54;;;;;;;;;10.33;7.00;;;30.42;100554.41;;;;117373;1190;25296;-55
2022/08/27 08:02:23;;;;;;;;;7.25;7.25;;;30.40;100553.84;;;;117430;1189;25052;-55
2022/08/27 08:04:52;;;;;;;;;7.00;6.25;;;30.38;100558.27;;;;117387;1190;25260;-59
2022/08/27 08:07:21;;;;;;;;;11.50;9.25;;;30.37;100556.14;;;;117417;1188;25196;-57
2022/08/27 08:09:50;;;;;;;;;9.00;8.25;;;30.39;100550.77;;;;117443;1189;25379;-58
2022/08/27 08:12:19;;;;;;;;;11.00;7.33;;;30.40;100553.68;;;;117422;1189;25533;-56
2022/08/27 08:14:56;;;;;;;;;8.75;7.25;;;30.38;100554.52;;;;117402;1189;25557;-56
2022/08/27 08:17:25;;;;;;;;;7.33;7.33;;;30.45;100555.34;;;;117409;1190;25183;-56
2022/08/27 08:19:55;;;;;;;;;11.25;9.00;;;30.48;100552.77;;;;117322;1189;25543;-58
2022/08/27 08:22:44;;;;;;;;;6.75;5.00;;;30.50;100549.40;;;;117404;1189;24868;-57
2022/08/27 08:25:12;;;;;;;;;9.50;8.00;;;30.52;100549.09;;;;117384;1190;25406;-57
2022/08/27 08:27:41;;;;;;;;;6.33;6.33;;;30.50;100545.73;;;;117470;1190;24975;-57
2022/08/27 08:30:10;;;;;;;;;12.75;6.00;;;30.47;100548.97;;;;117465;1190;24907;-57
2022/08/27 08:32:39;;;;;;;;;9.33;6.00;;;30.45;100549.52;;;;117520;1189;25012;-58
2022/08/27 08:35:09;;;;;;;;;9.50;6.50;;;30.51;100550.52;;;;117421;1189;25214;-54
2022/08/27 08:37:38;;;;;;;;;5.75;4.00;;;30.48;100551.76;;;;117448;1189;26359;-54
2022/08/27 08:40:07;;;;;;;;;10.00;8.33;;;30.49;100547.80;;;;117457;1190;25021;-58
2022/08/27 08:42:44;;;;;;;;;6.33;6.33;;;30.49;100547.80;;;;117449;1189;24688;-56
2022/08/27 08:45:24;;;;;;;;;8.00;7.00;;;30.46;100542.48;;;;117420;1189;25079;-57
2022/08/27 08:48:01;;;;;;;;;8.67;7.67;;;30.48;100541.31;;;;117456;1189;25497;-58
2022/08/27 08:50:52;;;;;;;;;9.50;7.00;;;30.47;100540.65;;;;117458;1189;24799;-57
2022/08/27 08:53:20;;;;;;;;;6.50;5.25;;;30.50;100542.72;;;;117441;1189;25639;-57
2022/08/27 08:56:00;;;;;;;;;10.33;8.67;;;30.52;100543.66;;;;117475;1189;25613;-57
2022/08/27 08:58:48;;;;;;;;;7.67;5.00;;;30.52;100544.45;;;;117474;1189;24756;-57
2022/08/27 09:01:19;;;;;;;;;7.50;6.50;;;30.53;100544.16;;;;117367;1189;24981;-57
2022/08/27 09:03:59;;;;;;;;;8.33;6.00;;;30.51;100531.52;;;;117392;1189;25575;-57
2022/08/27 09:06:36;;;;;;;;;16.00;12.00;;;30.50;100535.19;;;;117389;1190;24875;-56
2022/08/27 09:09:20;;;;;;;;;22.33;14.67;;;30.52;100545.52;;;;117383;1189;25546;-57
2022/08/27 09:12:00;;;;;;;;;18.25;12.25;;;30.57;100543.11;;;;117408;1190;25194;-56
2022/08/27 09:14:40;;;;;;;;;14.50;11.25;;;30.57;100539.09;;;;117415;1189;24887;-58
2022/08/27 09:17:13;;;;;;;;;13.50;12.00;;;30.58;100536.75;;;;117410;1189;25045;-56
2022/08/27 09:19:42;;;;;;;;;17.00;9.00;;;30.66;100534.64;;;;117330;1189;25150;-55
2022/08/27 09:22:17;;;;;;;;;16.75;12.00;;;30.64;100522.98;;;;118175;1188;25624;-55
2022/08/27 09:24:52;;;;;;;;;13.33;11.00;;;30.73;100527.84;;;;117349;1190;25379;-53
2022/08/27 09:27:22;;;;;;;;;11.50;7.75;;;30.69;100526.83;;;;117371;1189;26154;-54
2022/08/27 09:29:53;;;;;;;;;16.50;12.25;;;30.66;100540.65;;;;117414;1190;24951;-48
2022/08/27 09:32:27;;;;;;;;;12.75;9.75;;;30.62;100549.45;;;;117431;1189;25279;-49
2022/08/27 09:35:03;;;;;;;;;19.33;11.67;;;30.60;100536.67;;;;117375;1189;25453;-48
2022/08/27 09:37:38;;;;;;;;;16.25;10.00;;;30.59;100549.77;;;;117451;1189;25009;-50
2022/08/27 09:40:15;;;;;;;;;21.67;13.67;;;30.56;100550.05;;;;117446;1189;25292;-62
2022/08/27 09:42:53;;;;;;;;;10.50;9.25;;;30.60;100549.40;;;;117375;1190;25557;-63
2022/08/27 09:45:28;;;;;;;;;14.50;10.75;;;30.58;100547.79;;;;117424;1190;24891;-61
2022/08/27 09:48:10;;;;;;;;;13.25;10.00;;;30.55;100542.04;;;;117428;1189;25198;-61
2022/08/27 09:50:52;;;;;;;;;15.00;11.75;;;30.51;100541.45;;;;117407;1190;24758;-60
2022/08/27 09:53:27;;;;;;;;;15.50;10.50;;;30.52;100543.64;;;;117454;1189;25571;-61
2022/08/27 09:56:02;;;;;;;;;17.00;11.67;;;30.49;100545.45;;;;117449;1190;24856;-60
2022/08/27 09:58:34;;;;;;;;;20.00;11.00;;;30.49;100544.69;;;;117442;1189;25646;-59
2022/08/27 10:01:06;;;;;;;;;14.50;9.25;;;30.49;100545.30;;;;117476;1187;25044;-58
2022/08/27 10:03:35;;;;;;;;;15.00;9.75;;;30.51;100543.61;;;;117405;1189;25714;-60
2022/08/27 10:06:04;;;;;;;;;12.33;10.67;;;30.50;100544.81;;;;117442;1189;25171;-61
2022/08/27 10:08:47;;;;;;;;;16.75;11.25;;;30.48;100540.98;;;;117449;1190;25251;-60
2022/08/27 10:11:28;;;;;;;;;16.75;11.75;;;31.02;100540.02;;;;117458;1189;25299;-64
2022/08/27 10:14:01;;;;;;;;;16.25;12.00;;;31.55;100542.15;;;;117429;1190;25181;-63
2022/08/27 10:16:59;;;;;;;;;18.50;11.00;;;31.80;100535.82;;;;117448;1190;25430;-70
2022/08/27 10:19:34;;;;;;;;;17.25;10.50;;;31.91;100539.25;;;;117438;1189;24826;-63
2022/08/27 10:22:40;;;;;;;;;13.75;12.50;;;31.95;100541.52;;;;117489;1189;24760;-69
2022/08/27 10:25:31;;;;;;;;;16.33;9.00;;;31.96;100540.44;;;;117537;1189;25706;-66
2022/08/27 10:28:13;;;;;;;;;14.25;11.25;;;31.99;100544.09;;;;117194;1190;24731;-63
2022/08/27 10:31:07;;;;;;;;;11.50;9.25;;;31.97;100546.11;;;;117436;1189;25619;-64
2022/08/27 10:33:43;;;;;;;;;11.00;8.75;;;31.94;100543.23;;;;117425;1190;24760;-63
2022/08/27 10:36:33;;;;;;;;;14.00;9.25;;;31.84;100544.19;;;;117464;1189;25622;-65
2022/08/27 10:39:10;;;;;;;;;16.67;10.33;;;31.82;100539.75;;;;117411;1190;25537;-63
2022/08/27 10:41:44;;;;;;;;;13.33;9.67;;;31.77;100537.80;;;;117441;1189;25428;-64
2022/08/27 10:44:17;;;;;;;;;12.00;10.00;;;31.72;100542.93;;;;117422;1189;25173;-64
2022/08/27 10:47:13;;;;;;;;;19.50;15.00;;;31.67;100546.05;;;;117436;1189;25742;-59
2022/08/27 10:49:44;;;;;;;;;13.50;9.00;;;31.65;100542.64;;;;117425;1190;25449;-63
2022/08/27 10:52:22;;;;;;;;;19.25;12.00;;;31.59;100552.14;;;;117432;1189;26341;-58
2022/08/27 10:55:10;;;;;;;;;14.25;8.75;;;31.51;100551.67;;;;117394;1190;25004;-59
2022/08/27 10:58:02;;;;;;;;;15.50;9.50;;;31.36;100546.66;;;;117404;1190;25242;-58
2022/08/27 11:01:08;;;;;;;;;14.00;10.75;;;31.19;100548.36;;;;117445;1189;24785;-59
2022/08/27 11:03:43;;;;;;;;;11.25;8.75;;;31.09;100545.17;;;;117420;1188;25378;-59
2022/08/27 11:06:25;;;;;;;;;11.67;8.33;;;31.00;100544.25;;;;117417;1190;24806;-60
2022/08/27 11:09:09;;;;;;;;;11.75;7.25;;;31.00;100542.10;;;;117424;1189;25009;-60
2022/08/27 11:11:55;;;;;;;;;12.33;10.00;;;31.01;100539.35;;;;117424;1190;25629;-58
2022/08/27 11:14:54;;;;;;;;;8.50;6.50;;;31.03;100544.26;;;;117376;1190;25398;-60
2022/08/27 11:17:30;;;;;;;;;17.00;10.00;;;31.02;100542.28;;;;117427;1190;25507;-59
2022/08/27 11:20:18;;;;;;;;;12.50;10.00;;;30.97;100536.11;;;;117472;1189;24871;-59
2022/08/27 11:22:51;;;;;;;;;12.75;8.75;;;30.94;100537.59;;;;117419;1190;25463;-61
2022/08/27 11:25:45;;;;;;;;;10.00;9.00;;;30.92;100536.41;;;;117429;1189;25571;-60
2022/08/27 11:28:14;;;;;;;;;10.00;7.00;;;30.90;100532.25;;;;117483;1189;25058;-59
2022/08/27 11:30:57;;;;;;;;;15.00;10.33;;;30.87;100532.14;;;;117499;1190;24983;-62
2022/08/27 11:33:35;;;;;;;;;9.25;8.00;;;30.86;100527.23;;;;117494;1190;25297;-60
2022/08/27 11:36:12;;;;;;;;;12.25;9.75;;;30.87;100524.17;;;;117433;1189;25522;-60
2022/08/27 11:38:59;;;;;;;;;16.00;11.00;;;30.84;100521.23;;;;117431;1188;24859;-60
2022/08/27 11:41:41;;;;;;;;;12.00;10.50;;;30.77;100520.43;;;;117415;1189;24936;-62
2022/08/27 11:44:14;;;;;;;;;10.75;9.25;;;30.75;100522.42;;;;117448;1189;24832;-60
2022/08/27 11:47:09;;;;;;;;;18.00;11.50;;;30.76;100524.65;;;;117438;1189;25626;-63
2022/08/27 11:49:46;;;;;;;;;9.75;8.00;;;30.74;100522.14;;;;117414;1189;25390;-63
2022/08/27 11:52:36;;;;;;;;;13.33;9.67;;;30.74;100519.15;;;;117444;1190;24777;-64
2022/08/27 11:55:20;;;;;;;;;11.33;7.67;;;30.73;100516.77;;;;117418;1189;25399;-63
2022/08/27 11:58:01;;;;;;;;;14.33;9.00;;;30.73;100515.27;;;;117441;1189;25174;-60
2022/08/27 12:00:33;;;;;;;;;10.33;8.67;;;30.72;100518.04;;;;117418;1190;25320;-64
2022/08/27 12:03:22;;;;;;;;;16.33;14.00;;;30.71;100521.69;;;;117462;1189;25498;-61
2022/08/27 12:05:54;;;;;;;;;12.75;8.25;;;30.73;100517.35;;;;117381;1189;24758;-63
2022/08/27 12:08:28;;;;;;;;;11.00;8.75;;;30.75;100514.84;;;;117436;1190;25098;-60
2022/08/27 12:11:20;;;;;;;;;10.67;10.33;;;30.62;100514.60;;;;117411;1189;25319;-62
2022/08/27 12:13:54;;;;;;;;;11.25;9.00;;;30.68;100512.60;;;;117365;1189;25133;-66
2022/08/27 12:16:37;;;;;;;;;11.25;10.00;;;30.70;100511.95;;;;117422;1189;25497;-60
2022/08/27 12:19:20;;;;;;;;;15.75;8.75;;;30.69;100512.18;;;;117481;1189;25137;-63
2022/08/27 12:21:55;;;;;;;;;9.75;9.50;;;30.68;100513.91;;;;117409;1189;24816;-58
2022/08/27 12:24:40;;;;;;;;;14.50;11.00;;;30.67;100514.55;;;;117458;1189;25682;-62
2022/08/27 12:27:35;;;;;;;;;9.25;9.25;;;30.74;100517.80;;;;117401;1190;25569;-59
2022/08/27 12:30:31;;;;;;;;;14.50;11.25;;;30.88;100516.38;;;;117422;1189;24927;-57